createdAt,value
2022-11-20T00:00:26.283Z,8.35
2022-11-20T00:02:52.095Z,8.60
2022-11-20T00:05:18.530Z,7.88
2022-11-20T00:07:44.332Z,7.80
2022-11-20T00:10:10.301Z,8.00
2022-11-20T00:12:36.089Z,8.25
2022-11-20T00:15:01.917Z,7.80
2022-11-20T00:17:27.734Z,8.18
2022-11-20T00:19:53.586Z,7.65
2022-11-20T00:22:19.613Z,6.88
2022-11-20T00:24:45.428Z,8.18
2022-11-20T00:27:11.304Z,8.27
2022-11-20T00:29:37.086Z,8.18
2022-11-20T00:32:02.999Z,8.52
2022-11-20T00:34:28.805Z,7.70
2022-11-20T00:36:54.549Z,8.32
2022-11-20T00:39:20.558Z,8.20
2022-11-20T00:41:46.514Z,8.40
2022-11-20T00:44:12.315Z,8.63
2022-11-20T00:46:38.189Z,9.07
2022-11-20T00:49:04.033Z,8.98
2022-11-20T00:51:29.826Z,9.60
2022-11-20T00:53:57.688Z,9.43
2022-11-20T00:56:23.767Z,9.23
2022-11-20T00:58:49.641Z,9.98
2022-11-20T01:01:18.250Z,8.98
2022-11-20T01:03:46.153Z,9.77
2022-11-20T01:06:13.156Z,9.90
2022-11-20T01:08:40.248Z,9.63
2022-11-20T01:11:14.870Z,9.27
2022-11-20T01:13:41.555Z,10.63
2022-11-20T01:16:18.129Z,9.43
2022-11-20T01:18:48.267Z,9.73
2022-11-20T01:21:19.035Z,8.68
2022-11-20T01:23:45.558Z,8.77
2022-11-20T01:26:15.142Z,10.32
2022-11-20T01:28:41.716Z,9.45
2022-11-20T01:31:15.603Z,11.40
2022-11-20T01:33:42.549Z,11.00
2022-11-20T01:36:08.886Z,11.52
2022-11-20T01:38:34.996Z,11.95
2022-11-20T01:41:00.850Z,12.00
2022-11-20T01:43:28.675Z,12.63
2022-11-20T01:46:09.491Z,12.00
2022-11-20T01:48:44.886Z,10.60
2022-11-20T01:51:29.859Z,11.32
2022-11-20T01:53:59.828Z,11.23
2022-11-20T01:56:28.726Z,11.95
2022-11-20T01:58:58.231Z,11.10
2022-11-20T02:01:24.497Z,12.48
2022-11-20T02:03:51.013Z,14.30
2022-11-20T02:06:26.068Z,12.52
2022-11-20T02:08:52.933Z,15.07
2022-11-20T02:11:19.362Z,15.40
2022-11-20T02:13:45.927Z,15.10
2022-11-20T02:16:28.850Z,14.80
2022-11-20T02:18:57.530Z,13.88
2022-11-20T02:21:55.811Z,14.02
2022-11-20T02:24:23.057Z,15.13
2022-11-20T02:27:01.391Z,12.82
2022-11-20T02:29:34.526Z,15.32
2022-11-20T02:32:02.291Z,14.88
2022-11-20T02:34:29.168Z,15.50
2022-11-20T02:36:56.908Z,13.73
2022-11-20T02:39:25.593Z,13.60
2022-11-20T02:41:54.356Z,11.90
2022-11-20T02:44:20.641Z,11.57
2022-11-20T02:46:47.395Z,11.20
2022-11-20T02:49:13.299Z,12.50
2022-11-20T02:51:39.701Z,13.60
2022-11-20T02:54:05.544Z,13.25
2022-11-20T02:56:31.853Z,12.75
2022-11-20T02:58:57.651Z,13.63
2022-11-20T03:01:23.553Z,12.98
2022-11-20T03:03:49.487Z,13.43
2022-11-20T03:06:16.810Z,13.15
2022-11-20T03:08:42.979Z,13.77
2022-11-20T03:11:09.729Z,13.55
2022-11-20T03:13:36.076Z,13.45
2022-11-20T03:16:12.018Z,14.15
2022-11-20T03:18:39.693Z,15.07
2022-11-20T03:21:06.962Z,15.18
2022-11-20T03:23:34.793Z,15.43
2022-11-20T03:26:17.447Z,15.57
2022-11-20T03:28:54.286Z,15.20
2022-11-20T03:31:22.827Z,16.55
2022-11-20T03:33:49.098Z,15.40
2022-11-20T03:36:17.125Z,16.83
2022-11-20T03:38:43.323Z,15.90
2022-11-20T03:41:14.334Z,17.75
2022-11-20T03:43:40.560Z,18.98
2022-11-20T03:46:07.573Z,19.50
2022-11-20T03:48:33.701Z,18.15
2022-11-20T03:51:14.690Z,18.95
2022-11-20T03:53:42.601Z,18.85
2022-11-20T03:56:10.340Z,19.92
2022-11-20T03:58:38.027Z,18.38
2022-11-20T04:01:15.743Z,18.85
2022-11-20T04:03:42.571Z,17.88
2022-11-20T04:06:20.206Z,18.75
2022-11-20T04:08:51.015Z,19.55
2022-11-20T04:11:22.539Z,19.60
2022-11-20T04:13:52.203Z,19.52
2022-11-20T04:16:19.217Z,19.65
2022-11-20T04:18:45.193Z,20.63
2022-11-20T04:21:11.321Z,19.60
2022-11-20T04:23:37.624Z,19.83
2022-11-20T04:26:09.117Z,22.02
2022-11-20T04:28:35.813Z,20.15
2022-11-20T04:31:10.073Z,20.75
2022-11-20T04:33:37.156Z,21.02
2022-11-20T04:36:10.869Z,19.90
2022-11-20T04:38:36.718Z,22.15
2022-11-20T04:41:08.185Z,19.42
2022-11-20T04:43:34.525Z,20.23
2022-11-20T04:46:01.401Z,16.98
2022-11-20T04:48:28.560Z,15.60
2022-11-20T04:50:54.450Z,20.13
2022-11-20T04:53:21.405Z,17.58
2022-11-20T04:55:47.411Z,15.93
2022-11-20T04:58:13.408Z,16.50
2022-11-20T05:00:39.667Z,15.38
2022-11-20T05:03:06.097Z,14.10
2022-11-20T05:05:34.626Z,13.60
2022-11-20T05:08:00.659Z,14.10
2022-11-20T05:10:27.010Z,14.82
2022-11-20T05:12:53.299Z,16.65
2022-11-20T05:15:19.869Z,16.27
2022-11-20T05:17:52.657Z,18.55
2022-11-20T05:20:19.930Z,16.48
2022-11-20T05:22:46.525Z,16.48
2022-11-20T05:25:12.597Z,16.00
2022-11-20T05:27:38.529Z,15.60
2022-11-20T05:30:05.549Z,15.65
2022-11-20T05:32:31.346Z,17.42
2022-11-20T05:34:57.259Z,17.25
2022-11-20T05:37:23.051Z,18.15
2022-11-20T05:39:49.000Z,17.60
2022-11-20T05:42:33.134Z,16.95
2022-11-20T05:45:00.537Z,17.63
2022-11-20T05:47:28.294Z,17.40
2022-11-20T05:49:54.286Z,19.58
2022-11-20T05:52:20.611Z,18.80
2022-11-20T05:54:46.382Z,17.75
2022-11-20T05:57:12.228Z,19.77
2022-11-20T05:59:38.006Z,17.17
2022-11-20T06:02:03.781Z,19.38
2022-11-20T06:04:29.749Z,18.90
2022-11-20T06:06:55.525Z,19.40
2022-11-20T06:09:21.553Z,18.33
2022-11-20T06:11:47.470Z,17.45
2022-11-20T06:14:13.227Z,19.25
2022-11-20T06:16:39.015Z,20.17
2022-11-20T06:19:04.861Z,18.63
2022-11-20T06:21:30.651Z,12.88
2022-11-20T06:23:56.475Z,13.35
2022-11-20T06:26:24.192Z,13.75
2022-11-20T06:28:50.390Z,14.10
2022-11-20T06:31:19.290Z,15.05
2022-11-20T06:33:45.279Z,12.77
2022-11-20T06:36:13.469Z,13.70
2022-11-20T06:38:40.088Z,12.30
2022-11-20T06:41:10.289Z,11.73
2022-11-20T06:43:36.210Z,10.35
2022-11-20T06:46:02.084Z,13.07
2022-11-20T06:48:28.844Z,10.55
2022-11-20T06:50:54.764Z,11.13
2022-11-20T06:53:21.383Z,10.18
2022-11-20T06:55:48.040Z,12.05
2022-11-20T06:58:15.603Z,10.77
2022-11-20T07:00:41.971Z,11.57
2022-11-20T07:03:09.234Z,11.13
2022-11-20T07:05:35.911Z,12.63
2022-11-20T07:08:02.965Z,12.88
2022-11-20T07:10:28.811Z,13.15
2022-11-20T07:12:55.302Z,13.32
2022-11-20T07:15:23.309Z,11.13
2022-11-20T07:17:49.174Z,10.90
2022-11-20T07:20:15.737Z,10.55
2022-11-20T07:22:41.811Z,12.15
2022-11-20T07:25:08.284Z,11.55
2022-11-20T07:27:34.550Z,11.70
2022-11-20T07:30:00.672Z,12.80
2022-11-20T07:32:26.640Z,11.50
2022-11-20T07:34:52.475Z,11.90
2022-11-20T07:37:19.339Z,12.85
2022-11-20T07:39:45.119Z,12.90
2022-11-20T07:42:12.459Z,13.27
2022-11-20T07:44:38.916Z,13.57
2022-11-20T07:47:05.030Z,12.75
2022-11-20T07:49:30.867Z,13.55
2022-11-20T07:52:01.745Z,14.00
2022-11-20T07:54:30.100Z,16.60
2022-11-20T07:56:55.873Z,21.20
2022-11-20T07:59:21.960Z,15.50
2022-11-20T08:01:47.975Z,13.13
2022-11-20T08:04:15.580Z,13.07
2022-11-20T08:06:41.367Z,13.88
2022-11-20T08:09:07.201Z,13.57
2022-11-20T08:11:51.320Z,14.10
2022-11-20T08:14:17.210Z,14.27
2022-11-20T08:16:45.974Z,13.95
2022-11-20T08:19:15.732Z,14.57
2022-11-20T08:21:41.875Z,13.35
2022-11-20T08:24:09.055Z,13.60
2022-11-20T08:26:36.249Z,14.63
2022-11-20T08:29:02.010Z,15.35
2022-11-20T08:31:28.299Z,15.07
2022-11-20T08:33:54.320Z,16.02
2022-11-20T08:36:21.900Z,16.23
2022-11-20T08:38:52.762Z,15.65
2022-11-20T08:41:25.748Z,16.65
2022-11-20T08:43:54.560Z,16.80
2022-11-20T08:46:21.009Z,15.45
2022-11-20T08:48:47.001Z,13.63
2022-11-20T08:51:13.389Z,13.48
2022-11-20T08:53:40.099Z,12.23
2022-11-20T08:56:06.969Z,12.68
2022-11-20T08:58:48.878Z,12.27
2022-11-20T09:01:20.413Z,12.98
2022-11-20T09:03:46.590Z,14.43
2022-11-20T09:06:13.185Z,13.57
2022-11-20T09:08:39.811Z,13.35
2022-11-20T09:11:06.245Z,13.15
2022-11-20T09:13:33.398Z,13.25
2022-11-20T09:16:03.110Z,13.88
2022-11-20T09:18:31.954Z,13.85
2022-11-20T09:20:59.798Z,14.23
2022-11-20T09:23:27.262Z,13.70
2022-11-20T09:25:55.566Z,12.60
2022-11-20T09:28:22.016Z,12.23
2022-11-20T09:30:48.005Z,11.77
2022-11-20T09:33:14.212Z,11.00
2022-11-20T09:35:40.034Z,9.48
2022-11-20T09:38:07.195Z,8.32
2022-11-20T09:40:36.015Z,8.02
2022-11-20T09:43:21.380Z,7.28
2022-11-20T09:46:09.126Z,7.07
2022-11-20T09:49:07.124Z,7.20
2022-11-20T09:51:46.537Z,7.25
2022-11-20T09:54:21.039Z,8.20
2022-11-20T09:57:02.818Z,8.90
2022-11-20T09:59:40.756Z,11.40
2022-11-20T10:02:36.554Z,9.90
2022-11-20T10:05:11.354Z,14.35
2022-11-20T10:08:09.960Z,14.25
2022-11-20T10:10:44.696Z,14.48
2022-11-20T10:13:20.604Z,13.30
2022-11-20T10:16:11.322Z,13.45
2022-11-20T10:19:10.804Z,13.70
2022-11-20T10:21:58.036Z,13.10
2022-11-20T10:24:41.889Z,10.93
2022-11-20T10:30:03.515Z,8.52
2022-11-20T10:32:40.744Z,8.25
2022-11-20T10:35:22.693Z,8.35
2022-11-20T10:37:54.043Z,9.20
2022-11-20T10:40:29.394Z,7.68
2022-11-20T10:43:18.021Z,8.07
2022-11-20T10:45:48.333Z,9.60
2022-11-20T10:48:23.628Z,9.00
2022-11-20T10:50:57.939Z,9.75
2022-11-20T10:53:58.952Z,8.60
2022-11-20T10:56:27.419Z,9.77
2022-11-20T10:59:04.949Z,10.00
2022-11-20T11:01:30.750Z,9.93
2022-11-20T11:03:58.705Z,10.00
2022-11-20T11:06:47.376Z,9.60
2022-11-20T11:09:25.486Z,10.48
2022-11-20T11:11:51.772Z,10.43
2022-11-20T11:14:17.608Z,11.23
2022-11-20T11:16:55.895Z,10.75
2022-11-20T11:19:22.438Z,10.15
2022-11-20T11:21:55.441Z,11.18
2022-11-20T11:24:45.202Z,10.43
2022-11-20T11:27:16.938Z,11.05
2022-11-20T11:29:43.954Z,11.25
2022-11-20T11:32:18.030Z,11.05
2022-11-20T11:34:43.935Z,11.68
2022-11-20T11:37:19.911Z,11.55
2022-11-20T11:39:49.367Z,11.35
2022-11-20T11:42:21.245Z,12.18
2022-11-20T11:45:06.864Z,11.68
2022-11-20T11:47:41.721Z,12.23
2022-11-20T11:50:10.591Z,12.32
2022-11-20T11:52:54.367Z,11.75
2022-11-20T11:55:43.407Z,12.02
2022-11-20T11:58:34.184Z,12.40
2022-11-20T12:01:42.501Z,12.40
2022-11-20T12:04:22.913Z,13.23
2022-11-20T12:06:58.369Z,12.80
2022-11-20T12:09:36.279Z,12.48
2022-11-20T12:12:11.172Z,12.85
2022-11-20T12:14:48.270Z,12.63
2022-11-20T12:17:14.587Z,12.20
2022-11-20T12:19:41.470Z,13.85
2022-11-20T12:22:31.466Z,11.57
2022-11-20T12:25:19.983Z,12.70
2022-11-20T12:28:01.074Z,12.93
2022-11-20T12:30:27.166Z,12.18
2022-11-20T12:33:17.542Z,13.73
2022-11-20T12:35:54.620Z,12.93
2022-11-20T12:38:54.420Z,13.68
2022-11-20T12:42:03.564Z,13.95
2022-11-20T12:45:06.600Z,13.18
2022-11-20T12:47:54.887Z,14.90
2022-11-20T12:51:00.124Z,15.48
2022-11-20T12:53:37.160Z,14.40
2022-11-20T12:56:27.575Z,15.30
2022-11-20T12:59:21.766Z,16.00
2022-11-20T13:02:22.167Z,15.65
2022-11-20T13:05:06.834Z,16.73
2022-11-20T13:07:35.388Z,16.88
2022-11-20T13:10:01.950Z,16.70
2022-11-20T13:12:40.643Z,18.88
2022-11-20T13:15:27.020Z,16.77
2022-11-20T13:18:02.173Z,18.75
2022-11-20T13:20:30.408Z,20.23
2022-11-20T13:23:00.275Z,18.40
2022-11-20T13:25:38.079Z,18.55
2022-11-20T13:28:26.063Z,17.60
2022-11-20T13:30:55.359Z,20.40
2022-11-20T13:33:26.936Z,18.92
2022-11-20T13:36:02.345Z,17.10
2022-11-20T13:38:33.820Z,17.98
2022-11-20T13:41:24.393Z,18.73
2022-11-20T13:43:52.286Z,18.63
2022-11-20T13:46:24.566Z,21.10
2022-11-20T13:48:51.740Z,19.60
2022-11-20T13:52:15.800Z,19.38
2022-11-20T13:55:02.730Z,18.95
2022-11-20T13:57:51.764Z,19.52
2022-11-20T14:00:20.292Z,21.50
2022-11-20T14:03:06.388Z,21.38
2022-11-20T14:08:05.831Z,21.70
2022-11-20T14:10:32.648Z,22.20
2022-11-20T14:12:59.176Z,22.10
2022-11-20T14:15:30.999Z,18.85
2022-11-20T14:17:58.019Z,19.95
2022-11-20T14:20:31.452Z,21.77
2022-11-20T14:22:57.328Z,21.63
2022-11-20T14:25:27.526Z,23.08
2022-11-20T14:28:01.197Z,24.17
2022-11-20T14:30:43.142Z,24.02
2022-11-20T14:33:12.412Z,22.50
2022-11-20T14:35:45.891Z,24.48
2022-11-20T14:38:17.208Z,25.15
2022-11-20T14:40:43.678Z,25.42
2022-11-20T14:43:20.792Z,26.25
2022-11-20T14:45:55.584Z,27.23
2022-11-20T14:48:27.904Z,25.48
2022-11-20T14:50:53.727Z,26.33
2022-11-20T14:53:24.259Z,26.50
2022-11-20T14:55:58.997Z,26.55
2022-11-20T14:58:28.377Z,25.52
2022-11-20T15:01:06.110Z,27.98
2022-11-20T15:03:40.732Z,25.25
2022-11-20T15:06:12.517Z,24.93
2022-11-20T15:08:38.349Z,24.42
2022-11-20T15:11:18.040Z,23.80
2022-11-20T15:13:43.948Z,23.33
2022-11-20T15:16:21.302Z,22.83
2022-11-20T15:18:47.949Z,22.80
2022-11-20T15:21:16.751Z,22.52
2022-11-20T15:23:43.699Z,22.05
2022-11-20T15:26:15.409Z,24.30
2022-11-20T15:28:47.868Z,23.60
2022-11-20T15:31:15.965Z,23.92
2022-11-20T15:33:42.885Z,22.27
2022-11-20T15:36:09.920Z,22.13
2022-11-20T15:38:36.123Z,22.05
2022-11-20T15:41:02.109Z,22.70
2022-11-20T15:43:27.951Z,21.83
2022-11-20T15:46:20.106Z,22.13
2022-11-20T15:48:54.631Z,22.20
2022-11-20T15:51:28.408Z,22.50
2022-11-20T15:53:55.218Z,21.48
2022-11-20T15:56:20.995Z,20.52
2022-11-20T15:58:47.020Z,22.13
2022-11-20T16:01:15.363Z,21.20
2022-11-20T16:03:41.820Z,21.50
2022-11-20T16:06:08.019Z,20.42
2022-11-20T16:08:33.984Z,20.60
2022-11-20T16:10:59.893Z,22.65
2022-11-20T16:13:44.566Z,22.30
2022-11-20T16:16:22.579Z,23.33
2022-11-20T16:18:49.790Z,22.48
2022-11-20T16:21:16.168Z,23.27
2022-11-20T16:23:45.267Z,22.13
2022-11-20T16:26:20.959Z,22.38
2022-11-20T16:28:46.827Z,21.10
2022-11-20T16:31:15.234Z,21.92
2022-11-20T16:33:41.614Z,20.55
2022-11-20T16:36:12.691Z,18.65
2022-11-20T16:38:38.909Z,15.90
2022-11-20T16:41:05.769Z,17.80
2022-11-20T16:43:31.896Z,15.88
2022-11-20T16:45:57.885Z,14.82
2022-11-20T16:48:23.719Z,15.27
2022-11-20T16:50:53.352Z,16.70
2022-11-20T16:53:21.015Z,15.23
2022-11-20T16:55:46.973Z,16.25
2022-11-20T16:58:14.195Z,15.43
2022-11-20T17:00:40.718Z,14.43
2022-11-20T17:03:06.774Z,13.95
2022-11-20T17:05:33.778Z,13.98
2022-11-20T17:08:00.175Z,14.25
2022-11-20T17:10:26.262Z,12.13
2022-11-20T17:12:52.354Z,11.43
2022-11-20T17:15:18.188Z,11.63
2022-11-20T17:17:44.195Z,11.13
2022-11-20T17:20:11.835Z,11.73
2022-11-20T17:22:38.170Z,10.55
2022-11-20T17:25:04.922Z,9.50
2022-11-20T17:27:31.138Z,9.82
2022-11-20T17:29:58.622Z,7.60
2022-11-20T17:32:24.421Z,6.88
2022-11-20T17:34:50.384Z,5.97
2022-11-20T17:37:16.198Z,6.90
2022-11-20T17:39:44.042Z,5.88
2022-11-20T17:42:29.092Z,6.22
2022-11-20T17:44:57.942Z,6.03
2022-11-20T17:47:24.029Z,7.10
2022-11-20T17:49:49.860Z,4.97
2022-11-20T17:52:15.785Z,5.22
2022-11-20T17:54:41.853Z,5.38
2022-11-20T17:57:27.392Z,5.65
2022-11-20T17:59:53.305Z,5.78
2022-11-20T18:02:19.467Z,5.97
2022-11-20T18:04:45.227Z,5.68
2022-11-20T18:07:11.143Z,5.10
2022-11-20T18:09:37.026Z,4.93
2022-11-20T18:12:02.977Z,4.88
2022-11-20T18:14:31.840Z,3.53
2022-11-20T18:17:03.903Z,4.25
2022-11-20T18:19:33.298Z,5.07
2022-11-20T18:22:00.878Z,7.68
2022-11-20T18:24:26.898Z,4.75
2022-11-20T18:26:52.728Z,3.92
2022-11-20T18:29:18.718Z,3.78
2022-11-20T18:31:44.729Z,4.00
2022-11-20T18:34:13.310Z,3.42
2022-11-20T18:36:40.289Z,3.42
2022-11-20T18:39:06.254Z,3.30
2022-11-20T18:41:50.836Z,3.00
2022-11-20T18:44:43.730Z,4.80
2022-11-20T18:47:14.864Z,2.85
2022-11-20T18:49:42.220Z,3.08
2022-11-20T18:52:08.247Z,2.90
2022-11-20T18:54:36.245Z,3.30
2022-11-20T18:57:02.825Z,3.60
2022-11-20T18:59:29.076Z,2.97
2022-11-20T19:01:55.315Z,2.72
2022-11-20T19:04:22.180Z,2.88
2022-11-20T19:06:55.284Z,5.20
2022-11-20T19:09:22.230Z,3.53
2022-11-20T19:11:48.239Z,3.22
2022-11-20T19:14:14.678Z,2.80
2022-11-20T19:16:42.493Z,3.10
2022-11-20T19:19:09.438Z,3.08
2022-11-20T19:21:38.353Z,3.08
2022-11-20T19:24:05.234Z,3.50
2022-11-20T19:26:33.654Z,3.50
2022-11-20T19:28:59.889Z,2.90
2022-11-20T19:31:26.540Z,3.83
2022-11-20T19:33:58.748Z,3.65
2022-11-20T19:36:27.199Z,3.20
2022-11-20T19:38:53.682Z,3.45
2022-11-20T19:41:28.155Z,3.13
2022-11-20T19:44:05.163Z,2.90
2022-11-20T19:46:32.738Z,3.28
2022-11-20T19:48:58.936Z,3.40
2022-11-20T19:51:30.068Z,2.90
2022-11-20T19:53:57.018Z,3.40
2022-11-20T19:56:23.713Z,3.00
2022-11-20T19:58:49.873Z,3.53
2022-11-20T20:01:19.417Z,3.22
2022-11-20T20:03:46.076Z,3.28
2022-11-20T20:06:17.576Z,3.58
2022-11-20T20:08:44.119Z,3.75
2022-11-20T20:11:15.281Z,3.75
2022-11-20T20:13:41.741Z,3.70
2022-11-20T20:16:12.125Z,4.35
2022-11-20T20:18:38.328Z,4.45
2022-11-20T20:21:06.101Z,4.82
2022-11-20T20:23:32.915Z,5.20
2022-11-20T20:25:59.603Z,5.15
2022-11-20T20:28:26.703Z,5.63
2022-11-20T20:30:52.648Z,5.90
2022-11-20T20:33:18.943Z,5.15
2022-11-20T20:35:44.830Z,6.82
2022-11-20T20:38:10.691Z,5.90
2022-11-20T20:40:36.834Z,5.40
2022-11-20T20:43:03.402Z,6.00
2022-11-20T20:45:29.265Z,6.50
2022-11-20T20:47:55.708Z,5.72
2022-11-20T20:50:21.904Z,6.25
2022-11-20T20:52:48.318Z,6.00
2022-11-20T20:55:14.379Z,7.30
2022-11-20T20:57:40.985Z,7.38
2022-11-20T21:00:08.150Z,8.32
2022-11-20T21:02:34.104Z,9.75
2022-11-20T21:05:00.229Z,10.93
2022-11-20T21:07:26.328Z,11.98
2022-11-20T21:09:52.476Z,12.52
2022-11-20T21:12:18.428Z,13.70
2022-11-20T21:14:44.262Z,12.25
2022-11-20T21:17:14.971Z,12.45
2022-11-20T21:19:41.573Z,10.20
2022-11-20T21:22:09.678Z,11.50
2022-11-20T21:24:36.463Z,10.65
2022-11-20T21:27:06.445Z,9.50
2022-11-20T21:29:33.078Z,9.25
2022-11-20T21:31:59.947Z,9.45
2022-11-20T21:34:26.180Z,9.75
2022-11-20T21:36:52.208Z,10.15
2022-11-20T21:39:20.955Z,10.02
2022-11-20T21:41:46.772Z,11.85
2022-11-20T21:44:31.413Z,10.38
2022-11-20T21:46:57.919Z,11.50
2022-11-20T21:49:23.977Z,11.32
2022-11-20T21:51:49.916Z,9.82
2022-11-20T21:54:16.889Z,10.82
2022-11-20T21:56:42.607Z,9.70
2022-11-20T21:59:12.497Z,11.85
2022-11-20T22:01:38.330Z,11.88
2022-11-20T22:04:04.303Z,13.18
2022-11-20T22:06:32.280Z,13.32
2022-11-20T22:08:58.640Z,13.63
2022-11-20T22:11:24.623Z,13.57
2022-11-20T22:14:09.063Z,15.07
2022-11-20T22:16:36.307Z,12.90
2022-11-20T22:19:03.036Z,11.93
2022-11-20T22:21:30.213Z,13.30
2022-11-20T22:23:56.629Z,12.65
2022-11-20T22:26:24.695Z,13.43
2022-11-20T22:28:52.716Z,12.88
2022-11-20T22:31:20.281Z,12.10
2022-11-20T22:33:46.141Z,11.73
2022-11-20T22:36:18.221Z,12.93
2022-11-20T22:38:44.415Z,13.05
2022-11-20T22:41:15.487Z,8.98
2022-11-20T22:43:42.306Z,9.80
2022-11-20T22:46:17.607Z,9.30
2022-11-20T22:48:48.767Z,8.95
2022-11-20T22:51:16.227Z,9.77
2022-11-20T22:53:42.929Z,10.43
2022-11-20T22:56:11.846Z,10.23
2022-11-20T22:58:39.122Z,10.38
2022-11-20T23:01:16.424Z,9.30
2022-11-20T23:03:44.790Z,10.00
2022-11-20T23:06:12.206Z,8.65
2022-11-20T23:08:39.793Z,8.38
2022-11-20T23:11:27.225Z,8.15
2022-11-20T23:13:58.443Z,6.32
2022-11-20T23:16:26.708Z,7.18
2022-11-20T23:18:58.004Z,6.90
2022-11-20T23:21:25.202Z,7.60
2022-11-20T23:23:54.074Z,6.70
2022-11-20T23:26:22.810Z,5.97
2022-11-20T23:28:48.760Z,6.70
2022-11-20T23:31:15.578Z,7.00
2022-11-20T23:33:43.705Z,6.63
2022-11-20T23:36:10.275Z,7.43
2022-11-20T23:38:36.834Z,6.50
2022-11-20T23:41:03.571Z,4.30
2022-11-20T23:43:29.844Z,4.40
2022-11-20T23:45:57.404Z,4.05
2022-11-20T23:48:28.782Z,3.67
2022-11-20T23:50:55.019Z,4.07
2022-11-20T23:53:21.823Z,3.50
2022-11-20T23:55:52.778Z,3.60
2022-11-20T23:58:19.743Z,4.28
